Time;durP1;ratioP1;P1;durP2;ratioP2;P2;SDS_P1;SDS_P2;PMS_P1;PMS_P2;Temp;Humidity;BMP_temperature;BMP_pressure;BME280_temperature;BME280_humidity;BME280_pressure;Samples;Min_cycle;Max_cycle;Signal;HPM_P1;HPM_P2
2022/01/23 00:00:17;;;;;;;35.00;20.80;;;8.40;99.90;;;;;;5052085;28;20266;-88
2022/01/23 00:02:48;;;;;;;29.60;18.65;;;8.60;99.90;;;;;;5053071;28;20250;-79
2022/01/23 00:05:14;;;;;;;34.35;20.88;;;8.60;99.90;;;;;;5052946;28;20167;-81
2022/01/23 00:07:41;;;;;;;34.17;20.42;;;8.40;99.90;;;;;;5052642;28;20160;-80
2022/01/23 00:10:09;;;;;;;33.17;21.13;;;8.60;99.90;;;;;;5052771;28;20253;-89
2022/01/23 00:12:41;;;;;;;31.65;20.80;;;8.70;99.90;;;;;;5052718;28;20191;-89
2022/01/23 00:17:52;;;;;;;29.45;19.90;;;8.40;99.90;;;;;;5053830;28;20642;-82
2022/01/23 00:20:18;;;;;;;37.33;21.23;;;8.10;99.90;;;;;;5052953;28;20168;-83
2022/01/23 00:22:51;;;;;;;34.90;20.63;;;8.10;99.90;;;;;;5053379;28;20175;-89
2022/01/23 00:30:48;;;;;;;29.00;19.77;;;8.10;99.90;;;;;;5057342;28;20253;-79
2022/01/23 00:33:15;;;;;;;37.17;19.85;;;8.20;99.90;;;;;;5056962;28;20189;-89
2022/01/23 00:35:42;;;;;;;33.53;19.20;;;8.30;99.90;;;;;;5056788;28;20616;-91
2022/01/23 00:38:10;;;;;;;33.17;19.60;;;8.30;99.90;;;;;;5056930;28;20197;-82
2022/01/23 00:40:37;;;;;;;29.75;19.15;;;8.20;99.90;;;;;;5056869;28;20186;-79
2022/01/23 00:43:13;;;;;;;32.20;19.00;;;8.20;99.90;;;;;;5055981;28;20186;-78
2022/01/23 00:45:45;;;;;;;29.60;20.05;;;8.00;99.90;;;;;;5056136;28;20159;-80
2022/01/23 00:48:12;;;;;;;35.03;21.30;;;8.20;99.90;;;;;;5056529;28;20692;-79
2022/01/23 00:50:42;;;;;;;30.05;19.65;;;8.00;99.90;;;;;;5056306;28;20192;-82
2022/01/23 00:53:10;;;;;;;35.83;20.73;;;8.10;99.90;;;;;;5054872;28;20174;-88
2022/01/23 00:55:42;;;;;;;34.03;20.25;;;8.30;99.90;;;;;;5055992;28;20196;-79
2022/01/23 00:58:08;;;;;;;31.23;19.67;;;8.40;99.90;;;;;;5055065;28;20163;-91
2022/01/23 01:00:34;;;;;;;31.65;20.25;;;8.60;99.90;;;;;;5056761;28;20624;-90
2022/01/23 01:03:01;;;;;;;33.70;19.13;;;8.60;99.90;;;;;;5056324;28;20175;-82
2022/01/23 01:05:27;;;;;;;39.13;19.52;;;8.60;99.90;;;;;;5056672;28;20620;-81
2022/01/23 01:07:58;;;;;;;33.33;20.95;;;8.70;99.90;;;;;;5055904;28;20175;-80
2022/01/23 01:10:32;;;;;;;28.30;19.77;;;8.30;99.90;;;;;;5055642;28;20254;-86
2022/01/23 01:13:00;;;;;;;31.73;19.23;;;8.20;99.90;;;;;;5055371;28;20167;-80
2022/01/23 01:16:34;;;;;;;39.03;20.52;;;8.30;99.90;;;;;;5055727;28;20274;-86
2022/01/23 01:32:02;;;;;;;37.60;19.63;;;8.30;99.90;;;;;;5054935;28;20348;-79
2022/01/23 01:35:00;;;;;;;35.55;20.85;;;8.40;99.90;;;;;;5054848;28;20538;-81
2022/01/23 01:37:16;;;;;;;30.05;19.75;;;8.30;99.90;;;;;;5056662;28;20202;-79
2022/01/23 01:39:42;;;;;;;35.22;20.27;;;8.20;99.90;;;;;;5055573;28;20250;-83
2022/01/23 01:42:08;;;;;;;33.60;20.40;;;8.20;99.90;;;;;;5054509;28;20194;-81
2022/01/23 01:44:34;;;;;;;34.25;20.60;;;8.10;99.90;;;;;;5056324;28;20659;-82
2022/01/23 01:46:59;;;;;;;31.38;20.85;;;8.00;99.90;;;;;;5056988;28;20155;-79
2022/01/23 01:49:32;;;;;;;32.42;20.40;;;8.20;99.90;;;;;;5056907;28;20175;-79
2022/01/23 01:51:59;;;;;;;30.15;19.40;;;8.20;99.90;;;;;;5055143;28;20183;-79
2022/01/23 01:54:28;;;;;;;32.40;21.75;;;8.10;99.90;;;;;;5055416;28;20236;-79
2022/01/23 01:57:08;;;;;;;33.53;20.55;;;8.00;99.90;;;;;;5054369;28;20623;-81
2022/01/23 02:10:23;;;;;;;30.85;19.88;;;8.00;99.90;;;;;;5056835;28;20186;-84
2022/01/23 02:13:03;;;;;;;34.10;21.75;;;8.00;99.90;;;;;;5065762;28;20171;-80
2022/01/23 02:50:56;;;;;;;40.17;22.58;;;8.20;99.90;;;;;;5053694;28;20678;-79
2022/01/23 02:55:55;;;;;;;34.67;21.38;;;8.30;99.90;;;;;;5053746;28;20186;-79
2022/01/23 02:58:23;;;;;;;34.20;21.38;;;8.60;99.90;;;;;;5053522;28;20573;-79
2022/01/23 03:01:05;;;;;;;37.67;21.52;;;8.60;99.90;;;;;;5053923;28;20187;-87
2022/01/23 03:03:35;;;;;;;39.70;22.98;;;8.50;99.90;;;;;;5052067;28;20274;-81
2022/01/23 03:14:14;;;;;;;40.63;22.55;;;8.10;99.90;;;;;;5052801;28;20567;-79
2022/01/23 03:27:52;;;;;;;40.03;23.30;;;8.20;99.90;;;;;;5053081;28;20274;-79
2022/01/23 03:30:15;;;;;;;44.60;23.02;;;8.30;99.90;;;;;;5052312;28;20193;-79
2022/01/23 03:32:45;;;;;;;38.78;23.63;;;8.00;99.90;;;;;;5053155;28;20187;-78
2022/01/23 03:35:11;;;;;;;40.30;24.58;;;8.30;99.90;;;;;;5052310;28;20206;-89
2022/01/23 03:37:37;;;;;;;39.67;25.08;;;8.40;99.90;;;;;;5054124;28;20171;-79
2022/01/23 03:40:06;;;;;;;39.22;24.15;;;8.40;99.90;;;;;;5053018;28;20653;-88
2022/01/23 03:42:35;;;;;;;43.72;24.25;;;8.40;99.90;;;;;;5053857;28;20231;-79
2022/01/23 03:47:40;;;;;;;40.25;23.90;;;8.20;99.90;;;;;;5053203;28;20193;-78
2022/01/23 03:50:10;;;;;;;45.35;23.40;;;8.20;99.90;;;;;;5053302;28;20162;-79
2022/01/23 03:52:35;;;;;;;39.45;23.60;;;8.30;99.90;;;;;;5052889;28;20541;-78
2022/01/23 03:55:04;;;;;;;42.85;24.00;;;8.30;99.90;;;;;;5052723;28;20213;-78
2022/01/23 03:57:30;;;;;;;42.67;23.98;;;8.20;99.90;;;;;;5052714;28;20159;-79
2022/01/23 03:59:55;;;;;;;49.97;25.65;;;8.40;99.90;;;;;;5052610;28;20174;-79
2022/01/23 04:02:21;;;;;;;44.17;23.27;;;8.40;99.90;;;;;;5056228;28;20190;-79
2022/01/23 04:04:46;;;;;;;41.10;24.95;;;8.40;99.90;;;;;;5062419;28;20202;-78
2022/01/23 04:07:21;;;;;;;40.58;23.77;;;8.40;99.90;;;;;;5075355;28;20171;-78
2022/01/23 04:09:48;;;;;;;37.42;24.65;;;8.40;99.90;;;;;;5057723;28;20163;-78
2022/01/23 04:33:45;;;;;;;42.78;24.50;;;8.60;99.90;;;;;;5056290;28;20217;-79
2022/01/23 04:48:06;;;;;;;42.55;22.85;;;8.60;99.90;;;;;;5056101;28;20626;-80
2022/01/23 05:01:00;;;;;;;43.75;22.50;;;8.60;99.90;;;;;;5056275;28;20252;-78
2022/01/23 05:06:11;;;;;;;40.15;24.27;;;8.60;99.90;;;;;;5057311;28;20198;-87
2022/01/23 05:08:37;;;;;;;38.80;23.88;;;8.60;99.90;;;;;;5056092;28;20166;-78
2022/01/23 05:11:06;;;;;;;42.72;23.90;;;8.60;99.90;;;;;;5056532;28;20222;-79
2022/01/23 05:13:32;;;;;;;42.47;22.92;;;8.60;99.90;;;;;;5057961;28;20195;-78
2022/01/23 05:15:58;;;;;;;42.65;24.45;;;8.30;99.90;;;;;;5062537;28;20235;-80
2022/01/23 05:18:24;;;;;;;47.03;24.80;;;8.10;99.90;;;;;;5063594;28;20574;-89
2022/01/23 05:20:58;;;;;;;44.78;24.48;;;8.10;99.90;;;;;;5059847;28;20209;-81
2022/01/23 05:23:24;;;;;;;46.80;24.20;;;8.50;99.90;;;;;;5059207;28;20253;-78
2022/01/23 05:25:49;;;;;;;44.03;24.23;;;8.80;99.90;;;;;;5055024;28;20198;-78
2022/01/23 05:28:15;;;;;;;40.95;23.98;;;8.60;99.90;;;;;;5055279;28;20171;-78
2022/01/23 05:30:41;;;;;;;44.92;24.65;;;8.50;99.90;;;;;;5056037;28;20708;-78
2022/01/23 05:33:07;;;;;;;36.58;23.20;;;8.40;99.90;;;;;;5056127;28;20807;-78
2022/01/23 05:35:32;;;;;;;48.95;24.13;;;8.30;99.90;;;;;;5055741;28;20206;-80
2022/01/23 05:37:58;;;;;;;46.67;25.30;;;8.30;99.90;;;;;;5055959;28;20649;-78
2022/01/23 05:40:27;;;;;;;47.20;25.52;;;8.50;99.90;;;;;;5055653;28;20729;-91
2022/01/23 05:42:53;;;;;;;43.50;23.20;;;8.80;99.90;;;;;;5056280;28;20171;-82
2022/01/23 05:45:18;;;;;;;41.47;24.13;;;8.60;99.90;;;;;;5054497;28;20213;-78
2022/01/23 05:47:44;;;;;;;39.92;24.40;;;8.40;99.90;;;;;;5055953;28;20167;-79
2022/01/23 05:50:09;;;;;;;43.80;23.45;;;8.20;99.90;;;;;;5056136;28;20163;-80
2022/01/23 05:52:35;;;;;;;44.38;23.73;;;8.10;99.90;;;;;;5055121;28;20230;-88
2022/01/23 05:55:02;;;;;;;45.20;24.40;;;8.10;99.90;;;;;;5070561;28;20678;-79
2022/01/23 05:57:27;;;;;;;44.13;24.95;;;8.20;99.90;;;;;;5054561;28;20167;-82
2022/01/23 05:59:53;;;;;;;51.20;27.50;;;8.40;99.90;;;;;;5054620;28;20648;-83
2022/01/23 06:02:18;;;;;;;48.47;25.48;;;8.40;99.90;;;;;;5054776;28;20183;-79
2022/01/23 06:04:44;;;;;;;47.53;26.50;;;8.30;99.90;;;;;;5054379;28;20616;-78
2022/01/23 06:07:10;;;;;;;43.50;25.10;;;8.50;99.90;;;;;;5054700;28;20634;-80
2022/01/23 06:09:40;;;;;;;43.15;24.65;;;8.40;99.90;;;;;;5054780;28;20171;-81
2022/01/23 06:12:07;;;;;;;43.47;24.70;;;8.30;99.90;;;;;;5054139;28;20183;-79
2022/01/23 06:14:33;;;;;;;43.60;25.48;;;8.20;99.90;;;;;;5054089;28;20241;-82
2022/01/23 06:16:58;;;;;;;50.30;24.85;;;8.20;99.90;;;;;;5054135;28;20299;-79
2022/01/23 06:19:24;;;;;;;42.60;24.60;;;8.20;99.90;;;;;;5054118;28;20168;-80
2022/01/23 06:21:49;;;;;;;41.80;24.30;;;8.40;99.90;;;;;;5054035;28;20286;-80
2022/01/23 06:24:26;;;;;;;45.78;24.40;;;8.40;99.90;;;;;;5054022;28;20170;-77
2022/01/23 06:26:56;;;;;;;44.40;25.83;;;8.20;99.90;;;;;;5053790;28;20162;-78
2022/01/23 06:29:24;;;;;;;46.13;26.10;;;8.10;99.90;;;;;;5053710;28;20195;-78
2022/01/23 06:31:53;;;;;;;41.28;24.30;;;8.00;99.90;;;;;;5053543;28;20194;-78
2022/01/23 06:34:19;;;;;;;44.53;25.55;;;8.10;99.90;;;;;;5054049;28;20305;-78
2022/01/23 06:36:45;;;;;;;45.20;25.13;;;8.00;99.90;;;;;;5054157;28;20832;-78
2022/01/23 06:39:12;;;;;;;42.03;24.33;;;8.30;99.90;;;;;;5053884;28;20175;-78
2022/01/23 06:41:39;;;;;;;53.25;26.65;;;8.40;99.90;;;;;;5056057;28;20180;-88
2022/01/23 06:44:05;;;;;;;45.55;25.83;;;8.40;99.90;;;;;;5054190;28;20242;-91
2022/01/23 06:46:31;;;;;;;46.63;26.25;;;8.50;99.90;;;;;;5054383;28;20164;-90
2022/01/23 06:48:57;;;;;;;46.83;24.58;;;8.40;99.90;;;;;;5054601;28;20246;-91
2022/01/23 06:51:23;;;;;;;46.42;25.15;;;8.70;99.90;;;;;;5054203;28;20183;-87
2022/01/23 06:53:49;;;;;;;50.25;27.17;;;8.60;99.90;;;;;;5050823;28;20690;-84
2022/01/23 06:56:15;;;;;;;43.03;24.90;;;8.40;99.90;;;;;;5034692;28;20176;-92
2022/01/23 06:58:40;;;;;;;47.83;26.65;;;8.50;99.90;;;;;;5033522;28;20167;-90
2022/01/23 07:01:07;;;;;;;44.83;26.38;;;8.60;99.90;;;;;;5034313;28;20248;-87
2022/01/23 07:03:34;;;;;;;46.95;26.13;;;8.50;99.90;;;;;;5034345;28;20525;-84
2022/01/23 07:06:00;;;;;;;45.72;26.48;;;8.60;99.90;;;;;;5032976;28;20172;-89
2022/01/23 07:08:25;;;;;;;44.92;25.73;;;8.60;99.90;;;;;;5033866;28;20663;-83
2022/01/23 07:10:51;;;;;;;48.83;27.08;;;8.50;99.90;;;;;;5034258;28;20553;-83
2022/01/23 07:13:17;;;;;;;47.67;24.63;;;8.80;99.90;;;;;;5034652;28;20167;-80
2022/01/23 07:15:42;;;;;;;47.88;24.33;;;8.70;99.90;;;;;;5034508;28;20675;-92
2022/01/23 07:18:08;;;;;;;45.28;25.45;;;8.60;99.90;;;;;;5034980;28;20160;-84
2022/01/23 07:20:34;;;;;;;50.10;26.27;;;8.30;99.90;;;;;;5034058;28;20254;-80
2022/01/23 07:22:59;;;;;;;46.17;26.02;;;8.30;99.90;;;;;;5033941;28;20259;-79
2022/01/23 07:25:25;;;;;;;42.55;24.45;;;8.30;99.90;;;;;;5033796;28;20229;-81
2022/01/23 07:27:54;;;;;;;46.92;26.70;;;8.20;99.90;;;;;;5033223;28;20168;-90
2022/01/23 07:30:27;;;;;;;51.17;24.15;;;8.30;99.90;;;;;;5033418;28;20156;-89
2022/01/23 07:32:53;;;;;;;42.67;25.85;;;8.40;99.90;;;;;;5036667;28;20187;-90
2022/01/23 07:35:19;;;;;;;41.88;23.92;;;8.30;99.90;;;;;;5035047;28;20207;-91
2022/01/23 07:37:45;;;;;;;42.10;24.95;;;8.30;99.90;;;;;;5034502;28;20160;-86
2022/01/23 07:40:11;;;;;;;45.75;24.38;;;8.50;99.90;;;;;;5033341;28;20163;-89
2022/01/23 07:42:39;;;;;;;42.45;24.48;;;8.60;99.90;;;;;;5033447;28;20183;-91
2022/01/23 07:45:05;;;;;;;49.03;24.95;;;8.70;99.90;;;;;;5033255;28;20191;-87
2022/01/23 07:47:31;;;;;;;45.08;24.35;;;8.70;99.90;;;;;;5034460;28;20218;-89
2022/01/23 07:49:56;;;;;;;45.50;25.20;;;8.60;99.90;;;;;;5034842;28;20164;-82
2022/01/23 07:52:22;;;;;;;45.90;25.38;;;8.60;99.90;;;;;;5034421;28;20184;-80
2022/01/23 07:54:47;;;;;;;47.15;26.80;;;8.60;99.90;;;;;;5033621;28;20234;-81
2022/01/23 07:57:13;;;;;;;42.80;23.88;;;8.60;99.90;;;;;;5033363;28;20179;-84
2022/01/23 07:59:39;;;;;;;48.13;26.25;;;8.80;99.90;;;;;;5033922;28;20178;-89
2022/01/23 08:02:05;;;;;;;42.03;24.10;;;8.60;99.90;;;;;;5034193;28;20231;-88
2022/01/23 08:04:30;;;;;;;43.60;24.80;;;8.50;99.90;;;;;;5034116;28;20528;-78
2022/01/23 08:07:12;;;;;;;46.45;25.50;;;8.20;99.90;;;;;;5033622;28;20578;-88
2022/01/23 08:09:38;;;;;;;44.47;23.65;;;8.40;99.90;;;;;;5033414;28;20160;-81
2022/01/23 08:12:04;;;;;;;36.45;22.42;;;8.60;99.90;;;;;;5033026;28;20608;-87
2022/01/23 08:14:30;;;;;;;52.40;24.98;;;8.40;99.90;;;;;;5033668;28;20208;-78
2022/01/23 08:16:55;;;;;;;42.78;26.10;;;8.40;99.90;;;;;;5036088;28;20654;-79
2022/01/23 08:19:21;;;;;;;46.22;25.17;;;8.50;99.90;;;;;;5040610;28;20264;-77
2022/01/23 08:21:46;;;;;;;47.03;26.05;;;8.70;99.90;;;;;;5041558;28;20294;-80
2022/01/23 08:24:12;;;;;;;49.47;26.25;;;8.90;99.90;;;;;;5042205;28;20167;-78
2022/01/23 08:26:38;;;;;;;50.33;27.73;;;8.90;99.90;;;;;;5047447;28;20233;-87
2022/01/23 08:29:05;;;;;;;45.47;24.77;;;8.80;99.90;;;;;;5055094;28;20175;-78
2022/01/23 08:31:31;;;;;;;41.65;24.02;;;8.90;99.90;;;;;;5058058;28;20210;-89
2022/01/23 08:33:56;;;;;;;45.15;25.25;;;8.90;99.90;;;;;;5056369;28;20198;-81
2022/01/23 08:36:22;;;;;;;41.22;23.95;;;9.00;99.90;;;;;;5055804;28;20225;-82
2022/01/23 08:38:48;;;;;;;44.53;23.52;;;9.20;99.90;;;;;;5054126;28;20650;-89
2022/01/23 08:43:58;;;;;;;48.65;23.92;;;9.20;99.90;;;;;;5052395;28;20190;-80
2022/01/23 08:46:24;;;;;;;43.97;24.73;;;8.90;99.90;;;;;;5052693;28;20614;-82
2022/01/23 08:48:49;;;;;;;44.88;25.05;;;9.00;99.90;;;;;;5068481;28;20537;-92
2022/01/23 08:51:15;;;;;;;41.47;24.60;;;9.10;99.90;;;;;;5055957;28;20195;-78
2022/01/23 08:53:41;;;;;;;40.25;23.67;;;9.30;99.90;;;;;;5072995;28;20238;-84
2022/01/23 08:56:07;;;;;;;48.00;25.85;;;9.20;99.90;;;;;;5056303;28;20533;-84
2022/01/23 08:58:33;;;;;;;52.45;29.42;;;9.40;99.90;;;;;;5056888;28;20171;-85
2022/01/23 09:00:58;;;;;;;51.17;29.70;;;9.30;99.90;;;;;;5072416;28;20189;-91
2022/01/23 09:03:24;;;;;;;47.65;26.27;;;9.60;99.90;;;;;;5057636;28;20221;-91
2022/01/23 09:05:50;;;;;;;47.50;26.42;;;9.30;99.90;;;;;;5056976;28;20163;-90
2022/01/23 09:08:16;;;;;;;48.70;26.08;;;9.00;99.90;;;;;;5057057;28;20178;-91
2022/01/23 09:10:52;;;;;;;47.40;26.35;;;8.90;99.90;;;;;;5056950;28;20656;-92
2022/01/23 09:16:02;;;;;;;44.35;24.42;;;8.80;99.90;;;;;;5056699;28;20240;-89
2022/01/23 09:18:28;;;;;;;48.90;27.00;;;8.80;99.90;;;;;;5056813;28;20159;-89
2022/01/23 09:20:54;;;;;;;49.38;26.63;;;9.00;99.90;;;;;;5056366;28;20191;-92
2022/01/23 09:23:19;;;;;;;45.83;25.73;;;8.90;99.90;;;;;;5055785;28;20639;-86
2022/01/23 09:25:45;;;;;;;45.92;27.75;;;9.00;99.90;;;;;;5055777;28;20189;-78
2022/01/23 09:28:13;;;;;;;46.33;26.52;;;9.00;99.90;;;;;;5056933;28;20206;-88
2022/01/23 09:30:43;;;;;;;45.75;25.80;;;9.00;99.90;;;;;;5056547;28;20179;-81
2022/01/23 09:33:09;;;;;;;51.47;26.90;;;9.10;99.90;;;;;;5056655;28;20526;-91
2022/01/23 09:35:34;;;;;;;49.28;25.65;;;9.30;99.90;;;;;;5056774;28;20198;-90
2022/01/23 09:38:00;;;;;;;48.53;26.60;;;9.30;99.90;;;;;;5057315;28;20172;-92
2022/01/23 09:40:26;;;;;;;47.72;27.48;;;9.40;99.90;;;;;;5055868;28;20179;-88
2022/01/23 09:43:01;;;;;;;51.13;26.98;;;9.20;99.90;;;;;;5056566;28;20242;-87
2022/01/23 09:45:27;;;;;;;45.72;25.67;;;9.30;99.90;;;;;;5056529;28;20247;-90
2022/01/23 09:47:55;;;;;;;50.47;26.40;;;9.40;99.90;;;;;;5056656;28;20167;-89
2022/01/23 09:50:21;;;;;;;49.85;27.88;;;9.50;99.90;;;;;;5059459;28;20174;-87
2022/01/23 09:52:47;;;;;;;55.50;27.48;;;9.40;99.90;;;;;;5062888;28;20245;-88
2022/01/23 09:55:13;;;;;;;46.60;26.35;;;9.30;99.90;;;;;;5058849;28;20235;-90
2022/01/23 09:57:44;;;;;;;51.50;28.02;;;9.20;99.90;;;;;;5055842;28;20163;-88
2022/01/23 10:00:16;;;;;;;60.38;26.33;;;9.30;99.90;;;;;;5055451;28;20175;-91
2022/01/23 10:02:42;;;;;;;67.25;28.90;;;9.10;99.90;;;;;;5053739;28;20828;-90
2022/01/23 10:05:08;;;;;;;54.03;26.98;;;9.30;99.90;;;;;;5056043;28;20212;-90
2022/01/23 10:07:38;;;;;;;54.78;28.23;;;9.30;99.90;;;;;;5055973;28;20245;-93
2022/01/23 10:10:14;;;;;;;50.47;28.20;;;9.30;99.90;;;;;;5071414;28;20171;-91
2022/01/23 10:12:42;;;;;;;55.30;30.50;;;9.00;99.90;;;;;;5055484;28;20193;-93
2022/01/23 10:15:09;;;;;;;51.85;26.77;;;8.90;99.90;;;;;;5055999;28;20199;-89
2022/01/23 10:17:35;;;;;;;53.60;27.95;;;9.10;99.90;;;;;;5055239;28;20179;-83
2022/01/23 10:20:02;;;;;;;54.17;27.77;;;9.10;99.90;;;;;;5054243;28;20178;-79
2022/01/23 10:22:29;;;;;;;48.03;27.83;;;9.10;99.90;;;;;;5054922;28;20211;-92
2022/01/23 10:25:07;;;;;;;50.72;27.75;;;9.20;99.90;;;;;;5055068;28;20217;-89
2022/01/23 10:27:51;;;;;;;50.63;28.13;;;9.40;99.90;;;;;;5053172;28;20166;-87
2022/01/23 10:30:19;;;;;;;47.83;26.52;;;9.40;99.90;;;;;;5054770;28;20175;-90
2022/01/23 10:33:10;;;;;;;52.17;28.83;;;9.30;99.90;;;;;;5055795;28;20258;-82
2022/01/23 10:35:54;;;;;;;55.58;27.83;;;9.40;99.90;;;;;;5055730;28;20686;-86
2022/01/23 10:38:22;;;;;;;44.70;25.17;;;9.40;99.90;;;;;;5054712;28;20252;-88
2022/01/23 10:41:01;;;;;;;45.55;26.83;;;9.50;99.90;;;;;;5053218;28;20191;-88
2022/01/23 10:48:59;;;;;;;46.20;25.45;;;9.60;99.90;;;;;;5055344;28;20167;-84
2022/01/23 10:51:31;;;;;;;50.60;27.70;;;9.60;99.90;;;;;;5053615;28;20191;-87
2022/01/23 10:54:13;;;;;;;47.47;25.42;;;9.40;99.90;;;;;;5055114;28;20336;-79
2022/01/23 10:56:56;;;;;;;45.17;26.42;;;9.70;99.90;;;;;;5055238;28;20209;-80
2022/01/23 10:59:23;;;;;;;51.33;28.05;;;9.70;99.90;;;;;;5055418;28;20171;-90
2022/01/23 11:01:59;;;;;;;51.00;27.58;;;9.70;99.90;;;;;;5072480;28;20262;-85
2022/01/23 11:04:24;;;;;;;60.75;26.50;;;9.70;99.90;;;;;;5055910;28;20201;-92
2022/01/23 11:06:55;;;;;;;49.83;27.77;;;9.50;99.90;;;;;;5058180;28;20238;-88
2022/01/23 11:09:37;;;;;;;57.47;27.80;;;9.60;99.90;;;;;;5057609;28;20241;-83
2022/01/23 11:12:15;;;;;;;30.10;18.88;;;9.60;99.90;;;;;;5054418;28;20219;-92
2022/01/23 11:17:26;;;;;;;15.30;11.85;;;9.70;99.90;;;;;;5053645;28;20659;-80
2022/01/23 11:20:00;;;;;;;23.20;13.00;;;9.80;99.90;;;;;;5054019;28;20590;-93
2022/01/23 11:22:28;;;;;;;25.92;16.15;;;9.80;99.90;;;;;;5054008;28;20195;-90
2022/01/23 11:25:02;;;;;;;27.38;17.77;;;9.80;99.90;;;;;;5053682;28;20682;-78
2022/01/23 11:27:34;;;;;;;40.08;24.30;;;9.90;99.90;;;;;;5053030;28;20179;-83
2022/01/23 11:30:11;;;;;;;50.75;26.17;;;9.80;99.90;;;;;;5051757;28;20167;-82
2022/01/23 11:32:40;;;;;;;53.63;29.67;;;9.80;99.90;;;;;;5051845;28;20191;-86
2022/01/23 11:35:15;;;;;;;47.97;27.33;;;9.70;99.90;;;;;;5051531;28;20199;-87
2022/01/23 11:37:50;;;;;;;46.88;25.83;;;9.80;99.90;;;;;;5051804;28;20248;-82
2022/01/23 11:40:39;;;;;;;48.05;25.77;;;9.90;99.90;;;;;;5051465;28;20179;-81
2022/01/23 11:53:59;;;;;;;27.08;14.95;;;9.80;99.90;;;;;;5053357;28;20207;-87
2022/01/23 11:56:25;;;;;;;13.40;7.93;;;9.80;99.90;;;;;;5053026;28;20194;-88
2022/01/23 11:59:20;;;;;;;9.20;7.60;;;9.70;99.90;;;;;;5052651;28;20167;-85
2022/01/23 12:01:48;;;;;;;8.15;7.25;;;9.70;99.90;;;;;;5050723;28;20195;-87
2022/01/23 12:04:22;;;;;;;12.38;7.07;;;9.80;99.90;;;;;;5052942;28;20653;-81
2022/01/23 12:07:10;;;;;;;9.15;6.13;;;9.80;99.90;;;;;;5052772;28;20193;-86
2022/01/23 12:09:36;;;;;;;8.57;6.68;;;9.80;99.90;;;;;;5051260;28;20217;-82
2022/01/23 12:18:28;;;;;;;14.82;11.13;;;9.60;99.90;;;;;;5053337;28;20586;-86
2022/01/23 12:20:55;;;;;;;14.50;9.23;;;9.50;99.90;;;;;;5051747;28;20214;-86
2022/01/23 12:23:21;;;;;;;9.75;7.15;;;9.60;99.90;;;;;;5052685;28;20172;-82
2022/01/23 12:25:52;;;;;;;23.02;12.25;;;9.60;99.90;;;;;;5055447;28;20167;-87
2022/01/23 12:28:25;;;;;;;33.10;15.82;;;9.50;99.90;;;;;;5057515;28;20170;-89
2022/01/23 12:31:12;;;;;;;29.58;17.55;;;9.50;99.90;;;;;;5056949;28;20202;-83
2022/01/23 12:33:52;;;;;;;18.63;12.52;;;9.40;99.90;;;;;;5056380;28;20292;-84
2022/01/23 12:36:20;;;;;;;15.52;8.88;;;9.60;99.90;;;;;;5056546;28;20186;-85
2022/01/23 12:38:49;;;;;;;10.10;9.00;;;9.80;99.90;;;;;;5055130;28;20171;-80
2022/01/23 12:41:31;;;;;;;16.88;10.43;;;9.70;99.90;;;;;;5056575;28;20723;-80
2022/01/23 12:44:00;;;;;;;11.80;8.48;;;9.80;99.90;;;;;;5056401;28;20163;-83
2022/01/23 12:46:32;;;;;;;8.93;6.93;;;9.90;99.90;;;;;;5056385;28;20675;-79
2022/01/23 12:49:13;;;;;;;11.43;7.00;;;10.00;99.90;;;;;;5056221;28;20582;-78
2022/01/23 12:51:41;;;;;;;7.95;6.30;;;10.00;99.90;;;;;;5055806;28;20194;-85
2022/01/23 12:54:11;;;;;;;10.23;6.80;;;9.90;99.90;;;;;;5056424;28;20236;-83
2022/01/23 12:56:42;;;;;;;7.78;6.47;;;9.50;99.90;;;;;;5055964;28;20174;-79
2022/01/23 12:59:13;;;;;;;11.57;5.38;;;9.60;99.90;;;;;;5054917;28;20168;-80
2022/01/23 13:01:46;;;;;;;6.30;5.68;;;9.40;99.90;;;;;;5055675;28;20846;-80
2022/01/23 13:04:12;;;;;;;6.88;6.28;;;9.20;99.90;;;;;;5056028;28;20178;-83
2022/01/23 13:06:52;;;;;;;8.27;6.60;;;9.30;99.90;;;;;;5055451;28;20212;-84
2022/01/23 13:09:34;;;;;;;8.73;7.53;;;9.50;99.90;;;;;;5055664;28;20170;-84
2022/01/23 13:14:59;;;;;;;11.48;7.85;;;9.60;99.90;;;;;;5055731;28;20202;-80
2022/01/23 13:17:52;;;;;;;7.85;6.57;;;9.70;99.90;;;;;;5055354;28;20254;-80
2022/01/23 13:32:05;;;;;;;6.90;6.22;;;9.40;99.90;;;;;;5055859;28;20202;-84
2022/01/23 13:34:35;;;;;;;9.32;5.95;;;9.30;99.90;;;;;;5055487;28;20256;-85
2022/01/23 13:37:13;;;;;;;10.65;6.63;;;9.50;99.90;;;;;;5054478;28;20167;-84
2022/01/23 13:39:50;;;;;;;10.48;7.68;;;9.40;99.90;;;;;;5055580;28;20236;-85
2022/01/23 14:01:09;;;;;;;15.55;8.40;;;9.20;99.90;;;;;;5055318;28;20238;-84
2022/01/23 14:03:36;;;;;;;23.83;9.93;;;9.20;99.90;;;;;;5055330;28;20683;-85
2022/01/23 14:06:02;;;;;;;8.98;6.65;;;9.40;99.90;;;;;;5055132;28;20250;-81
2022/01/23 14:08:28;;;;;;;9.98;6.32;;;9.20;99.90;;;;;;5055370;28;20174;-79
2022/01/23 14:10:53;;;;;;;10.63;8.00;;;9.10;99.90;;;;;;5053567;28;20194;-81
2022/01/23 14:13:19;;;;;;;10.65;7.22;;;9.30;99.90;;;;;;5054436;28;20191;-83
2022/01/23 14:15:48;;;;;;;8.75;6.50;;;9.40;99.90;;;;;;5054936;28;20203;-81
2022/01/23 14:18:24;;;;;;;7.47;6.50;;;9.40;99.90;;;;;;5054473;28;20171;-84
2022/01/23 14:21:04;;;;;;;9.57;7.13;;;9.30;99.90;;;;;;5054398;28;20194;-80
2022/01/23 14:23:33;;;;;;;12.00;8.68;;;8.90;99.90;;;;;;5054781;28;20163;-85
2022/01/23 14:26:06;;;;;;;8.73;7.82;;;8.50;99.90;;;;;;5054091;28;20231;-85
2022/01/23 14:28:41;;;;;;;10.75;7.80;;;8.50;99.90;;;;;;5054849;28;20229;-84
2022/01/23 14:31:14;;;;;;;9.82;7.20;;;8.40;99.90;;;;;;5054763;28;20280;-85
2022/01/23 14:33:41;;;;;;;15.93;8.60;;;8.50;99.90;;;;;;5051307;28;20167;-80
2022/01/23 14:36:19;;;;;;;13.48;9.35;;;8.60;99.90;;;;;;5052224;28;20178;-80
2022/01/23 14:39:06;;;;;;;28.67;10.60;;;8.80;99.90;;;;;;5054094;28;20229;-82
2022/01/23 14:41:34;;;;;;;12.25;9.88;;;8.80;99.90;;;;;;5053817;28;20194;-84
2022/01/23 14:44:05;;;;;;;20.95;12.05;;;8.70;99.90;;;;;;5051962;28;20234;-80
2022/01/23 14:46:31;;;;;;;14.50;9.45;;;8.40;99.90;;;;;;5053927;28;20255;-83
2022/01/23 14:49:01;;;;;;;14.82;10.95;;;8.50;99.90;;;;;;5053650;28;20254;-82
2022/01/23 14:51:29;;;;;;;10.40;9.07;;;8.50;99.90;;;;;;5053587;28;20191;-79
2022/01/23 14:53:55;;;;;;;13.70;9.85;;;8.70;99.90;;;;;;5052643;28;20277;-82
2022/01/23 14:56:21;;;;;;;20.88;11.77;;;9.00;99.90;;;;;;5053884;28;20227;-82
2022/01/23 14:58:49;;;;;;;18.98;11.38;;;9.20;99.90;;;;;;5052076;28;20209;-81
2022/01/23 15:01:16;;;;;;;15.10;11.18;;;9.10;99.90;;;;;;5051365;28;20674;-81
2022/01/23 15:03:48;;;;;;;23.55;15.93;;;9.20;99.90;;;;;;5051413;28;20178;-84
2022/01/23 15:06:16;;;;;;;25.92;15.27;;;8.80;99.90;;;;;;5052708;28;20583;-85
2022/01/23 15:08:45;;;;;;;20.13;13.63;;;8.80;99.90;;;;;;5054490;28;20600;-83
2022/01/23 15:11:11;;;;;;;19.45;12.50;;;8.70;99.90;;;;;;5053011;28;20655;-84
2022/01/23 15:13:36;;;;;;;20.92;13.02;;;8.70;99.90;;;;;;5053774;28;20174;-85
2022/01/23 15:16:03;;;;;;;20.90;12.40;;;8.80;99.90;;;;;;5054174;28;20601;-81
2022/01/23 15:18:28;;;;;;;18.38;12.35;;;9.00;99.90;;;;;;5054506;28;20171;-82
2022/01/23 15:20:54;;;;;;;20.33;13.45;;;9.00;99.90;;;;;;5052124;28;20202;-84
2022/01/23 15:23:20;;;;;;;28.05;13.82;;;9.30;99.90;;;;;;5054071;28;20167;-80
2022/01/23 15:25:47;;;;;;;28.10;15.20;;;9.10;99.90;;;;;;5054561;28;20198;-84
2022/01/23 15:28:14;;;;;;;29.88;15.32;;;9.10;99.90;;;;;;5061229;28;20190;-84
2022/01/23 15:30:41;;;;;;;32.15;15.30;;;9.10;99.90;;;;;;5061528;28;20252;-84
2022/01/23 15:33:08;;;;;;;21.40;14.15;;;9.10;99.90;;;;;;5060526;28;20167;-80
2022/01/23 15:35:36;;;;;;;19.63;13.40;;;9.10;99.90;;;;;;5057330;28;20199;-83
2022/01/23 15:38:03;;;;;;;13.85;9.48;;;9.10;99.90;;;;;;5052679;28;20167;-84
2022/01/23 15:40:29;;;;;;;12.15;9.18;;;8.80;99.90;;;;;;5053048;28;20178;-80
2022/01/23 15:42:55;;;;;;;14.52;10.13;;;8.70;99.90;;;;;;5052763;28;20520;-80
2022/01/23 15:45:23;;;;;;;13.00;7.88;;;8.60;99.90;;;;;;5052815;28;20268;-82
2022/01/23 15:47:49;;;;;;;5.85;5.35;;;8.50;99.90;;;;;;5052814;28;20170;-84
2022/01/23 15:50:17;;;;;;;5.70;5.20;;;8.40;99.90;;;;;;5051722;28;20537;-82
2022/01/23 15:52:43;;;;;;;7.32;5.80;;;8.40;99.90;;;;;;5052605;28;20189;-83
2022/01/23 15:55:10;;;;;;;10.48;7.93;;;8.30;99.90;;;;;;5052573;28;20210;-80
2022/01/23 15:57:37;;;;;;;8.38;7.07;;;8.20;99.90;;;;;;5052728;28;20250;-84
2022/01/23 16:00:05;;;;;;;12.48;8.20;;;8.40;99.90;;;;;;5051979;28;20159;-82
2022/01/23 16:02:31;;;;;;;11.13;7.13;;;8.40;99.90;;;;;;5052673;28;20184;-83
2022/01/23 16:04:59;;;;;;;6.93;5.38;;;8.50;99.90;;;;;;5052873;28;20217;-80
2022/01/23 16:07:25;;;;;;;7.45;6.28;;;8.40;99.90;;;;;;5051335;28;20264;-83
2022/01/23 16:09:51;;;;;;;8.60;6.32;;;8.40;99.90;;;;;;5052838;28;20180;-80
2022/01/23 16:12:17;;;;;;;8.25;6.53;;;8.40;99.90;;;;;;5052423;28;20183;-81